sensor_id;sensor_type;location;lat;lon;timestamp;P1;durP1;ratioP1;P2;durP2;ratioP2
76065;SDS011;64763;48.928;8.474;2023-04-03T00:00:44;5.20;;;2.72;;
76065;SDS011;64763;48.928;8.474;2023-04-03T00:03:10;3.22;;;2.20;;
76065;SDS011;64763;48.928;8.474;2023-04-03T00:05:35;4.78;;;2.08;;
76065;SDS011;64763;48.928;8.474;2023-04-03T00:08:01;3.35;;;2.28;;
76065;SDS011;64763;48.928;8.474;2023-04-03T00:10:27;6.30;;;2.80;;
76065;SDS011;64763;48.928;8.474;2023-04-03T00:12:52;4.05;;;2.53;;
76065;SDS011;64763;48.928;8.474;2023-04-03T00:15:18;3.78;;;2.47;;
76065;SDS011;64763;48.928;8.474;2023-04-03T00:17:43;4.07;;;2.17;;
76065;SDS011;64763;48.928;8.474;2023-04-03T00:20:08;3.13;;;2.05;;
76065;SDS011;64763;48.928;8.474;2023-04-03T00:22:34;3.80;;;2.38;;
76065;SDS011;64763;48.928;8.474;2023-04-03T00:25:00;4.30;;;2.35;;
76065;SDS011;64763;48.928;8.474;2023-04-03T00:27:25;4.80;;;2.13;;
76065;SDS011;64763;48.928;8.474;2023-04-03T00:29:50;3.15;;;1.92;;
76065;SDS011;64763;48.928;8.474;2023-04-03T00:32:16;4.15;;;2.17;;
76065;SDS011;64763;48.928;8.474;2023-04-03T00:34:41;5.75;;;2.50;;
76065;SDS011;64763;48.928;8.474;2023-04-03T00:37:06;3.38;;;2.20;;
76065;SDS011;64763;48.928;8.474;2023-04-03T00:39:32;2.78;;;1.98;;
76065;SDS011;64763;48.928;8.474;2023-04-03T00:41:57;4.43;;;2.50;;
76065;SDS011;64763;48.928;8.474;2023-04-03T00:47:00;3.40;;;2.13;;
76065;SDS011;64763;48.928;8.474;2023-04-03T00:49:27;2.90;;;1.90;;
76065;SDS011;64763;48.928;8.474;2023-04-03T00:51:53;3.95;;;2.22;;
76065;SDS011;64763;48.928;8.474;2023-04-03T00:54:19;3.83;;;1.85;;
76065;SDS011;64763;48.928;8.474;2023-04-03T00:56:45;4.82;;;2.60;;
76065;SDS011;64763;48.928;8.474;2023-04-03T00:59:12;4.32;;;2.45;;
76065;SDS011;64763;48.928;8.474;2023-04-03T01:01:39;2.72;;;1.83;;
76065;SDS011;64763;48.928;8.474;2023-04-03T01:04:05;3.38;;;2.28;;
76065;SDS011;64763;48.928;8.474;2023-04-03T01:06:33;4.85;;;2.40;;
76065;SDS011;64763;48.928;8.474;2023-04-03T01:09:00;4.65;;;2.10;;
76065;SDS011;64763;48.928;8.474;2023-04-03T01:11:26;4.20;;;2.35;;
76065;SDS011;64763;48.928;8.474;2023-04-03T01:13:51;3.53;;;2.38;;
76065;SDS011;64763;48.928;8.474;2023-04-03T01:16:17;4.45;;;2.50;;
76065;SDS011;64763;48.928;8.474;2023-04-03T01:18:43;3.35;;;2.00;;
76065;SDS011;64763;48.928;8.474;2023-04-03T01:21:23;4.45;;;2.72;;
76065;SDS011;64763;48.928;8.474;2023-04-03T01:26:27;3.45;;;2.15;;
76065;SDS011;64763;48.928;8.474;2023-04-03T01:28:53;3.38;;;1.95;;
76065;SDS011;64763;48.928;8.474;2023-04-03T01:31:23;5.25;;;2.55;;
76065;SDS011;64763;48.928;8.474;2023-04-03T01:36:21;5.33;;;2.40;;
76065;SDS011;64763;48.928;8.474;2023-04-03T01:38:49;4.35;;;2.30;;
76065;SDS011;64763;48.928;8.474;2023-04-03T01:41:14;3.42;;;2.45;;
76065;SDS011;64763;48.928;8.474;2023-04-03T01:43:40;3.13;;;2.13;;
76065;SDS011;64763;48.928;8.474;2023-04-03T01:46:06;3.13;;;2.10;;
76065;SDS011;64763;48.928;8.474;2023-04-03T01:48:32;4.50;;;2.55;;
76065;SDS011;64763;48.928;8.474;2023-04-03T01:50:58;3.70;;;2.15;;
76065;SDS011;64763;48.928;8.474;2023-04-03T01:53:23;5.30;;;2.40;;
76065;SDS011;64763;48.928;8.474;2023-04-03T01:55:49;4.53;;;2.00;;
76065;SDS011;64763;48.928;8.474;2023-04-03T01:58:14;5.60;;;2.05;;
76065;SDS011;64763;48.928;8.474;2023-04-03T02:00:40;4.75;;;2.10;;
76065;SDS011;64763;48.928;8.474;2023-04-03T02:03:05;3.65;;;2.35;;
76065;SDS011;64763;48.928;8.474;2023-04-03T02:05:31;4.35;;;2.15;;
76065;SDS011;64763;48.928;8.474;2023-04-03T02:07:57;3.22;;;2.20;;
76065;SDS011;64763;48.928;8.474;2023-04-03T02:10:22;3.83;;;2.28;;
76065;SDS011;64763;48.928;8.474;2023-04-03T02:12:48;3.42;;;2.08;;
76065;SDS011;64763;48.928;8.474;2023-04-03T02:15:13;3.45;;;2.35;;
76065;SDS011;64763;48.928;8.474;2023-04-03T02:17:38;5.22;;;2.33;;
76065;SDS011;64763;48.928;8.474;2023-04-03T02:20:04;4.50;;;2.42;;
76065;SDS011;64763;48.928;8.474;2023-04-03T02:22:30;3.10;;;1.90;;
76065;SDS011;64763;48.928;8.474;2023-04-03T02:24:55;4.22;;;2.40;;
76065;SDS011;64763;48.928;8.474;2023-04-03T02:27:21;3.88;;;2.50;;
76065;SDS011;64763;48.928;8.474;2023-04-03T02:29:46;6.68;;;2.47;;
76065;SDS011;64763;48.928;8.474;2023-04-03T02:32:11;4.47;;;2.20;;
76065;SDS011;64763;48.928;8.474;2023-04-03T02:34:36;4.03;;;2.13;;
76065;SDS011;64763;48.928;8.474;2023-04-03T02:37:02;3.42;;;2.22;;
76065;SDS011;64763;48.928;8.474;2023-04-03T02:39:27;3.05;;;2.08;;
76065;SDS011;64763;48.928;8.474;2023-04-03T02:41:53;6.22;;;2.45;;
76065;SDS011;64763;48.928;8.474;2023-04-03T02:44:18;2.58;;;1.92;;
76065;SDS011;64763;48.928;8.474;2023-04-03T02:46:43;5.75;;;2.30;;
76065;SDS011;64763;48.928;8.474;2023-04-03T02:49:09;3.92;;;2.28;;
76065;SDS011;64763;48.928;8.474;2023-04-03T02:51:34;5.60;;;2.28;;
76065;SDS011;64763;48.928;8.474;2023-04-03T02:54:00;4.68;;;2.42;;
76065;SDS011;64763;48.928;8.474;2023-04-03T02:56:25;3.63;;;2.13;;
76065;SDS011;64763;48.928;8.474;2023-04-03T02:58:51;3.38;;;2.00;;
76065;SDS011;64763;48.928;8.474;2023-04-03T03:01:17;4.28;;;2.08;;
76065;SDS011;64763;48.928;8.474;2023-04-03T03:03:42;3.55;;;2.38;;
76065;SDS011;64763;48.928;8.474;2023-04-03T03:06:09;4.15;;;2.25;;
76065;SDS011;64763;48.928;8.474;2023-04-03T03:08:36;5.00;;;2.22;;
76065;SDS011;64763;48.928;8.474;2023-04-03T03:11:02;5.85;;;2.45;;
76065;SDS011;64763;48.928;8.474;2023-04-03T03:13:27;6.53;;;2.08;;
76065;SDS011;64763;48.928;8.474;2023-04-03T03:15:52;3.90;;;2.35;;
76065;SDS011;64763;48.928;8.474;2023-04-03T03:18:18;3.10;;;2.00;;
76065;SDS011;64763;48.928;8.474;2023-04-03T03:20:43;3.53;;;2.50;;
76065;SDS011;64763;48.928;8.474;2023-04-03T03:23:09;3.88;;;2.38;;
76065;SDS011;64763;48.928;8.474;2023-04-03T03:25:39;5.28;;;2.30;;
76065;SDS011;64763;48.928;8.474;2023-04-03T03:28:05;4.53;;;2.10;;
76065;SDS011;64763;48.928;8.474;2023-04-03T03:30:30;2.75;;;1.90;;
76065;SDS011;64763;48.928;8.474;2023-04-03T03:32:55;3.15;;;2.08;;
76065;SDS011;64763;48.928;8.474;2023-04-03T03:35:21;3.85;;;2.15;;
76065;SDS011;64763;48.928;8.474;2023-04-03T03:37:47;4.07;;;2.28;;
76065;SDS011;64763;48.928;8.474;2023-04-03T03:40:14;5.00;;;2.78;;
76065;SDS011;64763;48.928;8.474;2023-04-03T03:42:40;4.43;;;2.40;;
76065;SDS011;64763;48.928;8.474;2023-04-03T03:45:05;4.30;;;2.33;;
76065;SDS011;64763;48.928;8.474;2023-04-03T03:47:31;5.03;;;2.35;;
76065;SDS011;64763;48.928;8.474;2023-04-03T03:49:56;3.40;;;2.33;;
76065;SDS011;64763;48.928;8.474;2023-04-03T03:52:22;5.22;;;2.53;;
76065;SDS011;64763;48.928;8.474;2023-04-03T03:54:47;3.28;;;1.92;;
76065;SDS011;64763;48.928;8.474;2023-04-03T03:57:13;3.63;;;2.47;;
76065;SDS011;64763;48.928;8.474;2023-04-03T03:59:38;4.00;;;2.30;;
76065;SDS011;64763;48.928;8.474;2023-04-03T04:02:05;4.75;;;2.50;;
76065;SDS011;64763;48.928;8.474;2023-04-03T04:04:30;4.40;;;2.47;;
76065;SDS011;64763;48.928;8.474;2023-04-03T04:06:56;4.25;;;2.22;;
76065;SDS011;64763;48.928;8.474;2023-04-03T04:09:21;4.63;;;2.40;;
76065;SDS011;64763;48.928;8.474;2023-04-03T04:11:46;3.13;;;2.15;;
76065;SDS011;64763;48.928;8.474;2023-04-03T04:14:12;4.43;;;2.50;;
76065;SDS011;64763;48.928;8.474;2023-04-03T04:16:38;3.33;;;1.88;;
76065;SDS011;64763;48.928;8.474;2023-04-03T04:19:03;3.05;;;2.13;;
76065;SDS011;64763;48.928;8.474;2023-04-03T04:21:30;4.25;;;2.13;;
76065;SDS011;64763;48.928;8.474;2023-04-03T04:23:55;3.95;;;2.28;;
76065;SDS011;64763;48.928;8.474;2023-04-03T04:26:20;4.18;;;2.35;;
76065;SDS011;64763;48.928;8.474;2023-04-03T04:28:46;3.58;;;2.40;;
76065;SDS011;64763;48.928;8.474;2023-04-03T04:31:11;3.95;;;2.13;;
76065;SDS011;64763;48.928;8.474;2023-04-03T04:33:36;6.32;;;2.97;;
76065;SDS011;64763;48.928;8.474;2023-04-03T04:36:02;4.50;;;2.50;;
76065;SDS011;64763;48.928;8.474;2023-04-03T04:38:27;3.78;;;2.15;;
76065;SDS011;64763;48.928;8.474;2023-04-03T04:40:53;4.22;;;2.47;;
76065;SDS011;64763;48.928;8.474;2023-04-03T04:43:18;4.97;;;2.00;;
76065;SDS011;64763;48.928;8.474;2023-04-03T04:45:43;4.50;;;2.10;;
76065;SDS011;64763;48.928;8.474;2023-04-03T04:48:09;4.05;;;2.25;;
76065;SDS011;64763;48.928;8.474;2023-04-03T04:50:34;4.55;;;2.17;;
76065;SDS011;64763;48.928;8.474;2023-04-03T04:53:00;6.00;;;2.35;;
76065;SDS011;64763;48.928;8.474;2023-04-03T04:55:25;4.20;;;2.58;;
76065;SDS011;64763;48.928;8.474;2023-04-03T04:57:50;4.53;;;2.30;;
76065;SDS011;64763;48.928;8.474;2023-04-03T05:00:16;5.88;;;3.22;;
76065;SDS011;64763;48.928;8.474;2023-04-03T05:02:42;3.45;;;2.25;;
76065;SDS011;64763;48.928;8.474;2023-04-03T05:05:07;4.40;;;2.42;;
76065;SDS011;64763;48.928;8.474;2023-04-03T05:07:33;4.78;;;2.33;;
76065;SDS011;64763;48.928;8.474;2023-04-03T05:10:00;6.78;;;2.20;;
76065;SDS011;64763;48.928;8.474;2023-04-03T05:12:25;3.95;;;2.20;;
76065;SDS011;64763;48.928;8.474;2023-04-03T05:14:51;5.63;;;2.28;;
76065;SDS011;64763;48.928;8.474;2023-04-03T05:17:16;6.88;;;2.60;;
76065;SDS011;64763;48.928;8.474;2023-04-03T05:19:42;4.43;;;2.40;;
76065;SDS011;64763;48.928;8.474;2023-04-03T05:22:07;3.60;;;2.38;;
76065;SDS011;64763;48.928;8.474;2023-04-03T05:24:32;4.80;;;2.10;;
76065;SDS011;64763;48.928;8.474;2023-04-03T05:26:58;4.05;;;2.40;;
76065;SDS011;64763;48.928;8.474;2023-04-03T05:29:23;4.53;;;2.47;;
76065;SDS011;64763;48.928;8.474;2023-04-03T05:31:49;5.63;;;2.53;;
76065;SDS011;64763;48.928;8.474;2023-04-03T05:34:15;3.58;;;2.33;;
76065;SDS011;64763;48.928;8.474;2023-04-03T05:36:40;4.57;;;2.13;;
76065;SDS011;64763;48.928;8.474;2023-04-03T05:39:06;3.55;;;2.63;;
76065;SDS011;64763;48.928;8.474;2023-04-03T05:41:32;3.72;;;2.40;;
76065;SDS011;64763;48.928;8.474;2023-04-03T05:43:57;8.18;;;3.03;;
76065;SDS011;64763;48.928;8.474;2023-04-03T05:46:22;6.25;;;2.55;;
76065;SDS011;64763;48.928;8.474;2023-04-03T05:48:48;4.63;;;2.40;;
76065;SDS011;64763;48.928;8.474;2023-04-03T05:51:14;4.10;;;2.70;;
76065;SDS011;64763;48.928;8.474;2023-04-03T05:53:41;4.15;;;2.42;;
76065;SDS011;64763;48.928;8.474;2023-04-03T05:56:07;4.20;;;2.58;;
76065;SDS011;64763;48.928;8.474;2023-04-03T05:58:32;3.65;;;2.58;;
76065;SDS011;64763;48.928;8.474;2023-04-03T06:00:58;3.10;;;2.20;;
76065;SDS011;64763;48.928;8.474;2023-04-03T06:03:23;4.03;;;2.42;;
76065;SDS011;64763;48.928;8.474;2023-04-03T06:05:48;5.50;;;2.58;;
76065;SDS011;64763;48.928;8.474;2023-04-03T06:08:14;3.83;;;2.28;;
76065;SDS011;64763;48.928;8.474;2023-04-03T06:10:40;3.40;;;2.15;;
76065;SDS011;64763;48.928;8.474;2023-04-03T06:13:05;3.78;;;2.22;;
76065;SDS011;64763;48.928;8.474;2023-04-03T06:15:31;3.58;;;2.17;;
76065;SDS011;64763;48.928;8.474;2023-04-03T06:17:56;4.38;;;2.78;;
76065;SDS011;64763;48.928;8.474;2023-04-03T06:20:22;4.50;;;2.92;;
76065;SDS011;64763;48.928;8.474;2023-04-03T06:22:47;4.13;;;2.13;;
76065;SDS011;64763;48.928;8.474;2023-04-03T06:25:13;4.88;;;2.35;;
76065;SDS011;64763;48.928;8.474;2023-04-03T06:27:39;4.40;;;2.10;;
76065;SDS011;64763;48.928;8.474;2023-04-03T06:30:06;5.03;;;2.40;;
76065;SDS011;64763;48.928;8.474;2023-04-03T06:32:31;2.35;;;1.70;;
76065;SDS011;64763;48.928;8.474;2023-04-03T06:34:57;4.03;;;2.60;;
76065;SDS011;64763;48.928;8.474;2023-04-03T06:37:23;4.93;;;2.47;;
76065;SDS011;64763;48.928;8.474;2023-04-03T06:39:51;3.40;;;2.80;;
76065;SDS011;64763;48.928;8.474;2023-04-03T06:42:17;3.97;;;2.25;;
76065;SDS011;64763;48.928;8.474;2023-04-03T06:44:42;4.07;;;2.20;;
76065;SDS011;64763;48.928;8.474;2023-04-03T06:47:09;3.50;;;2.20;;
76065;SDS011;64763;48.928;8.474;2023-04-03T06:49:40;6.05;;;2.60;;
76065;SDS011;64763;48.928;8.474;2023-04-03T06:52:06;3.80;;;2.38;;
76065;SDS011;64763;48.928;8.474;2023-04-03T06:54:31;3.53;;;2.53;;
76065;SDS011;64763;48.928;8.474;2023-04-03T06:56:57;5.22;;;2.83;;
76065;SDS011;64763;48.928;8.474;2023-04-03T06:59:23;6.25;;;2.85;;
76065;SDS011;64763;48.928;8.474;2023-04-03T07:01:48;4.78;;;3.05;;
76065;SDS011;64763;48.928;8.474;2023-04-03T07:04:14;5.35;;;2.67;;
76065;SDS011;64763;48.928;8.474;2023-04-03T07:06:39;5.38;;;3.28;;
76065;SDS011;64763;48.928;8.474;2023-04-03T07:09:05;6.80;;;2.80;;
76065;SDS011;64763;48.928;8.474;2023-04-03T07:11:31;5.28;;;3.20;;
76065;SDS011;64763;48.928;8.474;2023-04-03T07:13:56;7.85;;;3.30;;
76065;SDS011;64763;48.928;8.474;2023-04-03T07:16:21;5.88;;;2.88;;
76065;SDS011;64763;48.928;8.474;2023-04-03T07:18:47;4.10;;;2.50;;
76065;SDS011;64763;48.928;8.474;2023-04-03T07:21:12;5.38;;;2.65;;
76065;SDS011;64763;48.928;8.474;2023-04-03T07:23:38;6.32;;;2.95;;
76065;SDS011;64763;48.928;8.474;2023-04-03T07:26:03;5.25;;;2.78;;
76065;SDS011;64763;48.928;8.474;2023-04-03T07:28:29;8.05;;;3.03;;
76065;SDS011;64763;48.928;8.474;2023-04-03T07:31:00;5.43;;;3.00;;
76065;SDS011;64763;48.928;8.474;2023-04-03T07:33:27;4.18;;;2.53;;
76065;SDS011;64763;48.928;8.474;2023-04-03T07:35:53;6.15;;;3.10;;
76065;SDS011;64763;48.928;8.474;2023-04-03T07:38:18;5.20;;;2.90;;
76065;SDS011;64763;48.928;8.474;2023-04-03T07:40:47;5.63;;;3.53;;
76065;SDS011;64763;48.928;8.474;2023-04-03T07:43:14;6.00;;;3.22;;
76065;SDS011;64763;48.928;8.474;2023-04-03T07:45:40;6.32;;;3.35;;
76065;SDS011;64763;48.928;8.474;2023-04-03T07:48:06;6.57;;;3.15;;
76065;SDS011;64763;48.928;8.474;2023-04-03T07:50:31;5.88;;;3.30;;
76065;SDS011;64763;48.928;8.474;2023-04-03T07:52:57;5.38;;;3.08;;
76065;SDS011;64763;48.928;8.474;2023-04-03T07:55:23;6.65;;;3.08;;
76065;SDS011;64763;48.928;8.474;2023-04-03T07:57:48;4.15;;;2.92;;
76065;SDS011;64763;48.928;8.474;2023-04-03T08:00:14;5.93;;;3.33;;
76065;SDS011;64763;48.928;8.474;2023-04-03T08:02:39;3.75;;;2.83;;
76065;SDS011;64763;48.928;8.474;2023-04-03T08:05:05;5.35;;;3.38;;
76065;SDS011;64763;48.928;8.474;2023-04-03T08:07:30;4.20;;;2.80;;
76065;SDS011;64763;48.928;8.474;2023-04-03T08:09:56;6.07;;;2.90;;
76065;SDS011;64763;48.928;8.474;2023-04-03T08:12:22;5.88;;;3.17;;
76065;SDS011;64763;48.928;8.474;2023-04-03T08:14:47;4.28;;;2.42;;
76065;SDS011;64763;48.928;8.474;2023-04-03T08:17:12;4.13;;;2.40;;
76065;SDS011;64763;48.928;8.474;2023-04-03T08:19:38;5.10;;;2.90;;
76065;SDS011;64763;48.928;8.474;2023-04-03T08:22:04;5.13;;;2.90;;
76065;SDS011;64763;48.928;8.474;2023-04-03T08:24:30;4.65;;;2.83;;
76065;SDS011;64763;48.928;8.474;2023-04-03T08:26:56;4.88;;;2.83;;
76065;SDS011;64763;48.928;8.474;2023-04-03T08:29:22;5.50;;;3.13;;
76065;SDS011;64763;48.928;8.474;2023-04-03T08:31:48;6.85;;;2.80;;
76065;SDS011;64763;48.928;8.474;2023-04-03T08:34:14;3.75;;;2.70;;
76065;SDS011;64763;48.928;8.474;2023-04-03T08:36:40;5.45;;;3.30;;
76065;SDS011;64763;48.928;8.474;2023-04-03T08:39:06;3.67;;;2.47;;
76065;SDS011;64763;48.928;8.474;2023-04-03T08:41:33;3.75;;;2.45;;
76065;SDS011;64763;48.928;8.474;2023-04-03T08:49:25;5.25;;;2.60;;
76065;SDS011;64763;48.928;8.474;2023-04-03T08:51:53;4.68;;;2.70;;
76065;SDS011;64763;48.928;8.474;2023-04-03T08:57:03;5.00;;;2.92;;
76065;SDS011;64763;48.928;8.474;2023-04-03T08:59:32;5.60;;;2.85;;
76065;SDS011;64763;48.928;8.474;2023-04-03T09:02:00;5.93;;;2.88;;
76065;SDS011;64763;48.928;8.474;2023-04-03T09:04:29;4.68;;;3.05;;
76065;SDS011;64763;48.928;8.474;2023-04-03T09:06:58;4.25;;;2.75;;
76065;SDS011;64763;48.928;8.474;2023-04-03T09:09:35;4.15;;;2.70;;
76065;SDS011;64763;48.928;8.474;2023-04-03T09:12:12;4.18;;;2.70;;
76065;SDS011;64763;48.928;8.474;2023-04-03T09:14:45;3.88;;;2.80;;
76065;SDS011;64763;48.928;8.474;2023-04-03T09:22:33;5.63;;;3.00;;
76065;SDS011;64763;48.928;8.474;2023-04-03T09:27:41;4.13;;;2.40;;
76065;SDS011;64763;48.928;8.474;2023-04-03T09:30:12;5.70;;;2.80;;
76065;SDS011;64763;48.928;8.474;2023-04-03T09:32:39;4.15;;;2.67;;
76065;SDS011;64763;48.928;8.474;2023-04-03T09:35:13;6.20;;;2.53;;
76065;SDS011;64763;48.928;8.474;2023-04-03T09:37:50;3.40;;;2.80;;
76065;SDS011;64763;48.928;8.474;2023-04-03T09:45:49;4.22;;;2.38;;
76065;SDS011;64763;48.928;8.474;2023-04-03T09:48:17;3.92;;;2.60;;
76065;SDS011;64763;48.928;8.474;2023-04-03T09:58:39;5.00;;;2.22;;
76065;SDS011;64763;48.928;8.474;2023-04-03T10:01:20;4.60;;;2.53;;
76065;SDS011;64763;48.928;8.474;2023-04-03T10:03:47;3.15;;;1.98;;
76065;SDS011;64763;48.928;8.474;2023-04-03T10:06:48;5.13;;;1.92;;
76065;SDS011;64763;48.928;8.474;2023-04-03T10:09:22;2.90;;;1.77;;
76065;SDS011;64763;48.928;8.474;2023-04-03T10:11:59;3.70;;;1.88;;
76065;SDS011;64763;48.928;8.474;2023-04-03T10:14:29;3.75;;;2.70;;
76065;SDS011;64763;48.928;8.474;2023-04-03T10:19:44;4.25;;;2.10;;
76065;SDS011;64763;48.928;8.474;2023-04-03T10:30:42;3.92;;;2.20;;
76065;SDS011;64763;48.928;8.474;2023-04-03T10:50:23;3.60;;;1.73;;
76065;SDS011;64763;48.928;8.474;2023-04-03T10:52:55;3.85;;;1.90;;
76065;SDS011;64763;48.928;8.474;2023-04-03T10:55:36;2.53;;;1.50;;
76065;SDS011;64763;48.928;8.474;2023-04-03T10:58:06;4.82;;;2.08;;
76065;SDS011;64763;48.928;8.474;2023-04-03T11:00:40;4.28;;;1.85;;
76065;SDS011;64763;48.928;8.474;2023-04-03T11:03:15;3.70;;;2.00;;
76065;SDS011;64763;48.928;8.474;2023-04-03T11:05:47;4.43;;;1.85;;
76065;SDS011;64763;48.928;8.474;2023-04-03T11:11:09;3.45;;;1.83;;
76065;SDS011;64763;48.928;8.474;2023-04-03T11:13:40;3.08;;;1.90;;
76065;SDS011;64763;48.928;8.474;2023-04-03T11:16:08;3.13;;;1.80;;
76065;SDS011;64763;48.928;8.474;2023-04-03T11:18:35;4.82;;;2.00;;
76065;SDS011;64763;48.928;8.474;2023-04-03T11:23:54;3.03;;;1.90;;
76065;SDS011;64763;48.928;8.474;2023-04-03T11:26:22;4.95;;;1.63;;
76065;SDS011;64763;48.928;8.474;2023-04-03T11:31:39;4.35;;;1.60;;
76065;SDS011;64763;48.928;8.474;2023-04-03T11:36:53;4.47;;;2.28;;
76065;SDS011;64763;48.928;8.474;2023-04-03T11:42:43;2.92;;;1.58;;
76065;SDS011;64763;48.928;8.474;2023-04-03T11:44:48;4.32;;;1.83;;
76065;SDS011;64763;48.928;8.474;2023-04-03T11:47:43;3.60;;;1.67;;
76065;SDS011;64763;48.928;8.474;2023-04-03T11:58:27;2.35;;;1.60;;
76065;SDS011;64763;48.928;8.474;2023-04-03T12:00:58;2.88;;;1.80;;
76065;SDS011;64763;48.928;8.474;2023-04-03T12:11:21;3.60;;;2.03;;
76065;SDS011;64763;48.928;8.474;2023-04-03T12:21:20;4.97;;;2.20;;
76065;SDS011;64763;48.928;8.474;2023-04-03T12:29:33;5.13;;;2.53;;
76065;SDS011;64763;48.928;8.474;2023-04-03T12:37:32;5.00;;;2.47;;
76065;SDS011;64763;48.928;8.474;2023-04-03T12:45:20;4.32;;;2.38;;
76065;SDS011;64763;48.928;8.474;2023-04-03T12:47:48;3.58;;;2.10;;
76065;SDS011;64763;48.928;8.474;2023-04-03T12:50:19;4.13;;;2.13;;
76065;SDS011;64763;48.928;8.474;2023-04-03T12:53:23;3.70;;;2.08;;
76065;SDS011;64763;48.928;8.474;2023-04-03T12:55:44;5.95;;;2.28;;
76065;SDS011;64763;48.928;8.474;2023-04-03T12:58:28;3.88;;;2.10;;
76065;SDS011;64763;48.928;8.474;2023-04-03T13:03:26;2.50;;;1.85;;
76065;SDS011;64763;48.928;8.474;2023-04-03T13:05:53;7.57;;;2.25;;
76065;SDS011;64763;48.928;8.474;2023-04-03T13:08:23;4.50;;;1.90;;
76065;SDS011;64763;48.928;8.474;2023-04-03T13:11:06;3.47;;;2.40;;
76065;SDS011;64763;48.928;8.474;2023-04-03T13:13:35;6.53;;;2.20;;
76065;SDS011;64763;48.928;8.474;2023-04-03T13:16:09;4.18;;;2.03;;
76065;SDS011;64763;48.928;8.474;2023-04-03T13:18:36;5.15;;;2.00;;
76065;SDS011;64763;48.928;8.474;2023-04-03T13:21:06;4.25;;;2.10;;
76065;SDS011;64763;48.928;8.474;2023-04-03T13:23:36;7.38;;;2.03;;
76065;SDS011;64763;48.928;8.474;2023-04-03T13:26:04;3.80;;;2.20;;
76065;SDS011;64763;48.928;8.474;2023-04-03T13:28:30;4.03;;;2.22;;
76065;SDS011;64763;48.928;8.474;2023-04-03T13:33:35;2.80;;;1.70;;
76065;SDS011;64763;48.928;8.474;2023-04-03T13:36:25;4.50;;;2.00;;
76065;SDS011;64763;48.928;8.474;2023-04-03T13:41:32;2.65;;;1.70;;
76065;SDS011;64763;48.928;8.474;2023-04-03T13:46:45;4.50;;;2.30;;
76065;SDS011;64763;48.928;8.474;2023-04-03T13:51:55;4.78;;;2.15;;
76065;SDS011;64763;48.928;8.474;2023-04-03T13:54:31;4.68;;;2.08;;
76065;SDS011;64763;48.928;8.474;2023-04-03T13:56:59;3.45;;;2.05;;
76065;SDS011;64763;48.928;8.474;2023-04-03T13:59:32;3.42;;;2.00;;
76065;SDS011;64763;48.928;8.474;2023-04-03T14:04:28;3.88;;;2.00;;
76065;SDS011;64763;48.928;8.474;2023-04-03T14:06:55;3.88;;;2.00;;
76065;SDS011;64763;48.928;8.474;2023-04-03T14:09:21;3.50;;;2.25;;
76065;SDS011;64763;48.928;8.474;2023-04-03T14:11:48;3.33;;;2.35;;
76065;SDS011;64763;48.928;8.474;2023-04-03T14:14:18;4.97;;;2.40;;
76065;SDS011;64763;48.928;8.474;2023-04-03T14:16:47;3.40;;;1.85;;
76065;SDS011;64763;48.928;8.474;2023-04-03T14:19:18;4.18;;;1.92;;
76065;SDS011;64763;48.928;8.474;2023-04-03T14:21:52;3.55;;;1.75;;
76065;SDS011;64763;48.928;8.474;2023-04-03T14:24:19;3.20;;;2.03;;
76065;SDS011;64763;48.928;8.474;2023-04-03T14:26:45;4.15;;;2.00;;
76065;SDS011;64763;48.928;8.474;2023-04-03T14:29:11;5.47;;;2.38;;
76065;SDS011;64763;48.928;8.474;2023-04-03T14:31:37;3.25;;;2.20;;
76065;SDS011;64763;48.928;8.474;2023-04-03T14:34:03;2.88;;;1.80;;
76065;SDS011;64763;48.928;8.474;2023-04-03T14:36:30;4.50;;;2.50;;
76065;SDS011;64763;48.928;8.474;2023-04-03T14:38:56;4.53;;;2.10;;
76065;SDS011;64763;48.928;8.474;2023-04-03T14:41:22;3.22;;;1.80;;
76065;SDS011;64763;48.928;8.474;2023-04-03T14:43:48;3.85;;;1.98;;
76065;SDS011;64763;48.928;8.474;2023-04-03T14:46:35;5.28;;;1.88;;
76065;SDS011;64763;48.928;8.474;2023-04-03T14:49:01;4.28;;;1.80;;
76065;SDS011;64763;48.928;8.474;2023-04-03T14:51:27;3.33;;;1.90;;
76065;SDS011;64763;48.928;8.474;2023-04-03T14:53:53;3.15;;;2.08;;
76065;SDS011;64763;48.928;8.474;2023-04-03T14:56:25;4.13;;;1.95;;
76065;SDS011;64763;48.928;8.474;2023-04-03T14:58:56;3.38;;;2.03;;
76065;SDS011;64763;48.928;8.474;2023-04-03T15:01:24;6.05;;;2.13;;
76065;SDS011;64763;48.928;8.474;2023-04-03T15:03:49;5.05;;;2.00;;
76065;SDS011;64763;48.928;8.474;2023-04-03T15:06:15;2.95;;;1.85;;
76065;SDS011;64763;48.928;8.474;2023-04-03T15:08:41;4.70;;;1.92;;
76065;SDS011;64763;48.928;8.474;2023-04-03T15:11:08;5.07;;;2.15;;
76065;SDS011;64763;48.928;8.474;2023-04-03T15:13:34;4.43;;;2.28;;
76065;SDS011;64763;48.928;8.474;2023-04-03T15:16:00;5.15;;;1.92;;
76065;SDS011;64763;48.928;8.474;2023-04-03T15:18:26;4.35;;;2.00;;
76065;SDS011;64763;48.928;8.474;2023-04-03T15:20:52;3.65;;;1.90;;
76065;SDS011;64763;48.928;8.474;2023-04-03T15:23:18;3.08;;;2.10;;
76065;SDS011;64763;48.928;8.474;2023-04-03T15:25:45;6.05;;;2.40;;
76065;SDS011;64763;48.928;8.474;2023-04-03T15:28:45;4.85;;;1.90;;
76065;SDS011;64763;48.928;8.474;2023-04-03T15:31:07;3.63;;;2.20;;
76065;SDS011;64763;48.928;8.474;2023-04-03T15:33:33;4.30;;;2.10;;
76065;SDS011;64763;48.928;8.474;2023-04-03T15:36:00;3.30;;;1.77;;
76065;SDS011;64763;48.928;8.474;2023-04-03T15:38:25;5.10;;;1.80;;
76065;SDS011;64763;48.928;8.474;2023-04-03T15:40:51;4.03;;;1.90;;
76065;SDS011;64763;48.928;8.474;2023-04-03T15:43:16;3.72;;;2.40;;
76065;SDS011;64763;48.928;8.474;2023-04-03T15:45:42;3.20;;;1.80;;
76065;SDS011;64763;48.928;8.474;2023-04-03T15:48:08;3.47;;;2.40;;
76065;SDS011;64763;48.928;8.474;2023-04-03T15:50:33;3.00;;;1.80;;
76065;SDS011;64763;48.928;8.474;2023-04-03T15:52:59;2.92;;;1.85;;
76065;SDS011;64763;48.928;8.474;2023-04-03T15:55:26;3.78;;;1.90;;
76065;SDS011;64763;48.928;8.474;2023-04-03T15:57:53;3.00;;;1.85;;
76065;SDS011;64763;48.928;8.474;2023-04-03T16:00:19;3.88;;;2.30;;
76065;SDS011;64763;48.928;8.474;2023-04-03T16:02:46;4.80;;;2.10;;
76065;SDS011;64763;48.928;8.474;2023-04-03T16:05:12;4.20;;;2.13;;
76065;SDS011;64763;48.928;8.474;2023-04-03T16:07:38;2.80;;;1.80;;
76065;SDS011;64763;48.928;8.474;2023-04-03T16:10:05;3.75;;;2.40;;
76065;SDS011;64763;48.928;8.474;2023-04-03T16:12:31;3.78;;;2.00;;
76065;SDS011;64763;48.928;8.474;2023-04-03T16:14:56;4.20;;;2.20;;
76065;SDS011;64763;48.928;8.474;2023-04-03T16:17:22;3.30;;;2.03;;
76065;SDS011;64763;48.928;8.474;2023-04-03T16:19:47;5.20;;;2.17;;
76065;SDS011;64763;48.928;8.474;2023-04-03T16:22:13;4.45;;;2.30;;
76065;SDS011;64763;48.928;8.474;2023-04-03T16:24:38;4.25;;;2.15;;
76065;SDS011;64763;48.928;8.474;2023-04-03T16:27:04;3.25;;;1.92;;
76065;SDS011;64763;48.928;8.474;2023-04-03T16:29:29;5.90;;;2.97;;
76065;SDS011;64763;48.928;8.474;2023-04-03T16:31:54;4.07;;;2.05;;
76065;SDS011;64763;48.928;8.474;2023-04-03T16:34:21;4.38;;;1.92;;
76065;SDS011;64763;48.928;8.474;2023-04-03T16:36:46;4.00;;;2.30;;
76065;SDS011;64763;48.928;8.474;2023-04-03T16:39:12;2.88;;;2.20;;
76065;SDS011;64763;48.928;8.474;2023-04-03T16:41:37;4.03;;;2.05;;
76065;SDS011;64763;48.928;8.474;2023-04-03T16:44:02;4.28;;;2.10;;
76065;SDS011;64763;48.928;8.474;2023-04-03T16:46:28;3.28;;;2.13;;
76065;SDS011;64763;48.928;8.474;2023-04-03T16:48:53;3.78;;;2.22;;
76065;SDS011;64763;48.928;8.474;2023-04-03T16:51:19;3.53;;;2.00;;
76065;SDS011;64763;48.928;8.474;2023-04-03T16:53:44;2.95;;;1.80;;
76065;SDS011;64763;48.928;8.474;2023-04-03T16:56:09;3.03;;;1.92;;
76065;SDS011;64763;48.928;8.474;2023-04-03T16:58:35;3.50;;;2.30;;
76065;SDS011;64763;48.928;8.474;2023-04-03T17:01:10;4.47;;;2.40;;
76065;SDS011;64763;48.928;8.474;2023-04-03T17:03:37;3.85;;;2.08;;